createdAt,value
2022-08-03T00:01:48.739Z,42.42
2022-08-03T00:04:38.122Z,39.60
2022-08-03T00:07:27.547Z,40.47
2022-08-03T00:10:17.423Z,43.63
2022-08-03T00:13:07.251Z,41.30
2022-08-03T00:15:57.672Z,46.30
2022-08-03T00:18:47.513Z,47.95
2022-08-03T00:21:37.235Z,48.70
2022-08-03T00:24:27.006Z,47.47
2022-08-03T00:27:19.413Z,45.63
2022-08-03T00:30:09.807Z,43.63
2022-08-03T00:33:00.222Z,44.47
2022-08-03T00:35:51.281Z,40.08
2022-08-03T00:38:41.849Z,40.95
2022-08-03T00:41:31.985Z,42.28
2022-08-03T00:44:22.455Z,41.65
2022-08-03T00:47:12.191Z,45.80
2022-08-03T00:50:02.863Z,50.60
2022-08-03T00:52:58.548Z,50.47
2022-08-03T00:55:48.600Z,47.92
2022-08-03T00:58:38.613Z,50.25
2022-08-03T01:01:29.197Z,46.67
2022-08-03T01:04:22.931Z,47.55
2022-08-03T01:07:40.411Z,45.95
2022-08-03T01:10:33.453Z,46.47
2022-08-03T01:14:00.947Z,47.63
2022-08-03T01:17:01.756Z,50.08
2022-08-03T01:20:07.783Z,40.42
2022-08-03T01:23:05.695Z,32.95
2022-08-03T01:26:40.431Z,34.53
2022-08-03T01:29:47.195Z,45.67
2022-08-03T01:33:01.048Z,31.98
2022-08-03T01:36:11.652Z,28.23
2022-08-03T01:39:06.222Z,31.83
2022-08-03T01:42:02.019Z,20.20
2022-08-03T01:44:53.726Z,17.52
2022-08-03T01:47:44.733Z,20.15
2022-08-03T01:50:35.746Z,22.33
2022-08-03T01:53:25.457Z,22.95
2022-08-03T01:56:15.070Z,23.00
2022-08-03T01:59:05.133Z,19.70
2022-08-03T02:02:28.677Z,17.70
2022-08-03T02:05:10.774Z,18.65
2022-08-03T02:08:04.172Z,18.40
2022-08-03T02:10:55.816Z,19.00
2022-08-03T02:13:47.084Z,17.70
2022-08-03T02:16:37.443Z,20.20
2022-08-03T02:19:32.445Z,18.80
2022-08-03T02:22:26.586Z,18.08
2022-08-03T02:25:19.438Z,17.35
2022-08-03T02:28:14.267Z,16.48
2022-08-03T02:31:10.621Z,16.73
2022-08-03T02:34:04.266Z,16.55
2022-08-03T02:36:55.930Z,16.75
2022-08-03T02:39:46.573Z,11.88
2022-08-03T02:42:37.887Z,14.93
2022-08-03T02:45:28.741Z,20.77
2022-08-03T02:48:24.052Z,36.42
2022-08-03T02:51:13.832Z,57.80
2022-08-03T02:54:05.638Z,55.80
2022-08-03T02:56:56.852Z,56.67
2022-08-03T02:59:48.189Z,53.60
2022-08-03T03:02:39.088Z,67.70
2022-08-03T03:05:53.596Z,66.75
2022-08-03T03:08:44.005Z,63.60
2022-08-03T03:11:37.074Z,68.18
2022-08-03T03:14:33.694Z,68.53
2022-08-03T03:17:24.286Z,65.43
2022-08-03T03:20:14.894Z,67.55
2022-08-03T03:23:04.727Z,63.85
2022-08-03T03:25:57.497Z,59.65
2022-08-03T03:28:47.823Z,59.83
2022-08-03T03:31:38.742Z,64.57
2022-08-03T03:34:32.057Z,65.75
2022-08-03T03:37:21.645Z,73.30
2022-08-03T03:40:12.530Z,73.03
2022-08-03T03:43:02.926Z,72.57
2022-08-03T03:45:55.077Z,69.93
2022-08-03T03:48:44.936Z,71.22
2022-08-03T03:51:34.849Z,72.72
2022-08-03T03:54:25.440Z,75.20
2022-08-03T03:57:18.799Z,70.60
2022-08-03T04:00:09.540Z,69.57
2022-08-03T04:02:59.897Z,65.10
2022-08-03T04:06:07.601Z,65.55
2022-08-03T04:09:15.808Z,71.78
2022-08-03T04:12:07.282Z,66.90
2022-08-03T04:14:59.596Z,69.70
2022-08-03T04:17:51.861Z,69.10
2022-08-03T04:20:42.994Z,71.93
2022-08-03T04:23:36.390Z,68.53
2022-08-03T04:26:28.314Z,78.07
2022-08-03T04:29:18.718Z,65.50
2022-08-03T04:32:09.391Z,66.40
2022-08-03T04:34:59.295Z,71.25
2022-08-03T04:37:52.055Z,68.90
2022-08-03T04:40:44.293Z,68.30
2022-08-03T04:43:35.514Z,66.88
2022-08-03T04:46:29.579Z,67.50
2022-08-03T04:49:22.340Z,60.60
2022-08-03T04:52:12.201Z,57.72
2022-08-03T04:55:02.860Z,56.45
2022-08-03T04:57:52.904Z,53.97
2022-08-03T05:00:43.790Z,48.47
2022-08-03T05:03:34.435Z,54.45
2022-08-03T05:06:25.042Z,49.42
2022-08-03T05:09:45.954Z,52.40
2022-08-03T05:12:28.389Z,50.30
2022-08-03T05:15:22.280Z,50.60
2022-08-03T05:18:14.124Z,43.97
2022-08-03T05:21:05.750Z,42.85
2022-08-03T05:23:56.193Z,39.15
2022-08-03T05:26:46.305Z,42.58
2022-08-03T05:29:36.327Z,43.35
2022-08-03T05:32:26.007Z,38.03
2022-08-03T05:35:55.881Z,26.75
2022-08-03T05:38:28.540Z,34.08
2022-08-03T05:41:20.962Z,44.05
2022-08-03T05:44:14.209Z,49.88
2022-08-03T05:47:04.096Z,35.25
2022-08-03T05:49:53.527Z,26.73
2022-08-03T05:52:44.692Z,28.63
2022-08-03T05:55:34.408Z,25.05
2022-08-03T05:58:24.286Z,28.48
2022-08-03T06:01:26.099Z,23.75
2022-08-03T06:04:18.655Z,22.10
2022-08-03T06:07:09.112Z,22.92
2022-08-03T06:10:37.354Z,23.27
2022-08-03T06:13:09.401Z,25.60
2022-08-03T06:15:59.410Z,28.27
2022-08-03T06:18:49.470Z,25.92
2022-08-03T06:21:39.929Z,24.27
2022-08-03T06:24:30.848Z,25.38
2022-08-03T06:27:20.932Z,27.20
2022-08-03T06:30:27.969Z,24.70
2022-08-03T06:33:18.164Z,21.83
2022-08-03T06:36:08.774Z,22.52
2022-08-03T06:39:06.368Z,27.95
2022-08-03T06:41:58.316Z,27.13
2022-08-03T06:44:47.706Z,23.65
2022-08-03T06:47:39.040Z,22.50
2022-08-03T06:50:37.815Z,21.55
2022-08-03T06:53:28.319Z,21.15
2022-08-03T06:56:19.025Z,26.23
2022-08-03T07:00:09.005Z,23.15
2022-08-03T07:02:24.777Z,25.40
2022-08-03T07:05:18.475Z,22.65
2022-08-03T07:08:09.174Z,26.42
2022-08-03T07:11:00.539Z,23.17
2022-08-03T07:13:51.307Z,23.92
2022-08-03T07:16:42.713Z,23.45
2022-08-03T07:19:32.423Z,22.58
2022-08-03T07:22:25.549Z,20.45
2022-08-03T07:25:15.275Z,21.75
2022-08-03T07:28:06.016Z,19.88
2022-08-03T07:30:55.447Z,19.88
2022-08-03T07:33:45.557Z,19.52
2022-08-03T07:36:35.882Z,19.05
2022-08-03T07:39:25.354Z,20.00
2022-08-03T07:42:18.007Z,18.83
2022-08-03T07:45:09.578Z,19.60
2022-08-03T07:48:11.782Z,15.95
2022-08-03T07:51:02.754Z,18.40
2022-08-03T07:53:52.992Z,16.05
2022-08-03T07:56:43.449Z,13.35
2022-08-03T07:59:56.627Z,12.82
2022-08-03T08:02:45.357Z,12.63
2022-08-03T08:05:35.638Z,12.40
2022-08-03T08:08:26.228Z,13.05
2022-08-03T08:11:19.207Z,12.88
2022-08-03T08:14:09.557Z,13.75
2022-08-03T08:17:02.323Z,9.90
2022-08-03T08:19:53.644Z,11.07
2022-08-03T08:22:43.811Z,10.70
2022-08-03T08:25:34.485Z,11.13
2022-08-03T08:28:32.808Z,9.43
2022-08-03T08:31:23.390Z,16.52
2022-08-03T08:34:13.785Z,16.30
2022-08-03T08:37:04.055Z,13.43
2022-08-03T08:39:53.825Z,11.35
2022-08-03T08:42:56.538Z,12.10
2022-08-03T08:45:51.797Z,14.88
2022-08-03T08:48:46.253Z,15.95
2022-08-03T08:51:50.938Z,13.20
2022-08-03T08:54:50.637Z,12.15
2022-08-03T08:57:44.580Z,14.48
2022-08-03T09:00:34.341Z,15.30
2022-08-03T09:03:29.648Z,12.80
2022-08-03T09:06:21.274Z,14.98
2022-08-03T09:09:11.190Z,15.57
2022-08-03T09:12:41.126Z,15.15
2022-08-03T09:15:33.199Z,14.60
2022-08-03T09:18:34.631Z,15.82
2022-08-03T09:21:31.720Z,16.40
2022-08-03T09:24:40.833Z,14.43
2022-08-03T09:27:31.819Z,14.88
2022-08-03T09:30:34.447Z,16.58
2022-08-03T09:33:25.226Z,16.95
2022-08-03T09:36:39.529Z,17.90
2022-08-03T09:39:42.178Z,17.92
2022-08-03T09:42:32.951Z,17.83
2022-08-03T09:45:29.683Z,20.48
2022-08-03T09:48:26.680Z,21.85
2022-08-03T09:51:33.231Z,23.02
2022-08-03T09:54:34.098Z,26.10
2022-08-03T09:57:27.477Z,25.50
2022-08-03T10:00:18.821Z,27.30
2022-08-03T10:03:08.561Z,22.35
2022-08-03T10:05:59.926Z,24.25
2022-08-03T10:09:08.341Z,24.23
2022-08-03T10:11:58.860Z,24.98
2022-08-03T10:14:48.589Z,30.27
2022-08-03T10:17:40.373Z,37.25
2022-08-03T10:20:30.787Z,29.35
2022-08-03T10:23:21.796Z,27.48
2022-08-03T10:26:15.689Z,28.80
2022-08-03T10:29:12.368Z,30.67
2022-08-03T10:32:03.679Z,29.17
2022-08-03T10:35:00.118Z,31.27
2022-08-03T10:38:14.484Z,31.02
2022-08-03T10:41:04.914Z,33.92
2022-08-03T10:44:22.890Z,34.53
2022-08-03T10:47:12.912Z,37.53
2022-08-03T10:50:02.902Z,44.72
2022-08-03T10:53:03.959Z,38.13
2022-08-03T10:56:13.116Z,40.45
2022-08-03T10:59:07.065Z,34.22
2022-08-03T11:02:00.974Z,36.95
2022-08-03T11:05:31.038Z,31.85
2022-08-03T11:08:38.562Z,32.65
2022-08-03T11:11:30.042Z,36.00
2022-08-03T11:14:20.258Z,32.30
2022-08-03T11:17:15.181Z,34.10
2022-08-03T11:20:06.823Z,36.15
2022-08-03T11:23:00.933Z,33.42
2022-08-03T11:26:12.362Z,25.73
2022-08-03T11:29:31.982Z,27.05
2022-08-03T11:32:49.148Z,25.77
2022-08-03T11:36:02.853Z,25.08
2022-08-03T11:39:18.451Z,27.95
2022-08-03T11:42:26.990Z,27.48
2022-08-03T11:45:21.243Z,28.95
2022-08-03T11:48:18.501Z,29.02
2022-08-03T11:51:10.146Z,29.02
2022-08-03T11:54:05.625Z,29.10
2022-08-03T11:56:55.375Z,29.17
2022-08-03T11:59:44.934Z,28.60
2022-08-03T12:02:36.101Z,31.25
2022-08-03T12:05:51.732Z,37.97
2022-08-03T12:08:43.305Z,35.38
2022-08-03T12:11:33.364Z,36.50
2022-08-03T12:14:49.545Z,30.88
2022-08-03T12:17:36.851Z,33.90
2022-08-03T12:20:35.294Z,32.22
2022-08-03T12:23:25.325Z,32.03
2022-08-03T12:26:14.712Z,30.83
2022-08-03T12:29:05.071Z,29.88
2022-08-03T12:31:56.045Z,31.38
2022-08-03T12:34:51.225Z,32.88
2022-08-03T12:37:41.048Z,32.88
2022-08-03T12:40:31.961Z,33.47
2022-08-03T12:43:24.733Z,37.38
2022-08-03T12:46:17.676Z,33.97
2022-08-03T12:49:07.462Z,32.72
2022-08-03T12:52:02.696Z,28.80
2022-08-03T12:55:02.401Z,22.98
2022-08-03T12:57:52.601Z,21.35
2022-08-03T13:00:42.446Z,19.17
2022-08-03T13:03:42.920Z,18.30
2022-08-03T13:06:32.874Z,16.92
2022-08-03T13:09:22.652Z,16.80
2022-08-03T13:12:17.060Z,16.83
2022-08-03T13:15:06.659Z,17.00
2022-08-03T13:17:59.939Z,18.95
2022-08-03T13:20:49.684Z,19.55
2022-08-03T13:23:39.486Z,19.77
2022-08-03T13:26:34.380Z,18.20
2022-08-03T13:29:24.118Z,18.77
2022-08-03T13:32:13.930Z,17.90
2022-08-03T13:35:06.875Z,18.25
2022-08-03T13:37:57.172Z,18.13
2022-08-03T13:40:47.242Z,17.45
2022-08-03T13:43:40.391Z,15.57
2022-08-03T13:46:30.909Z,15.80
2022-08-03T13:49:21.028Z,14.95
2022-08-03T13:52:10.818Z,15.48
2022-08-03T13:55:01.270Z,16.17
2022-08-03T13:58:03.795Z,18.35
2022-08-03T14:00:56.232Z,16.08
2022-08-03T14:03:47.815Z,15.90
2022-08-03T14:06:37.550Z,16.65
2022-08-03T14:09:28.172Z,16.20
2022-08-03T14:12:18.887Z,16.88
2022-08-03T14:15:11.389Z,17.88
2022-08-03T14:18:03.863Z,18.65
2022-08-03T14:20:56.332Z,20.83
2022-08-03T14:23:47.298Z,21.00
2022-08-03T14:26:36.416Z,20.23
2022-08-03T14:29:25.694Z,20.38
2022-08-03T14:32:15.175Z,19.65
2022-08-03T14:35:05.354Z,19.38
2022-08-03T14:37:54.689Z,19.27
2022-08-03T14:40:44.824Z,18.92
2022-08-03T14:43:36.006Z,19.35
2022-08-03T14:46:26.322Z,20.40
2022-08-03T14:50:30.260Z,19.83
2022-08-03T14:52:27.674Z,20.17
2022-08-03T14:55:17.082Z,20.33
2022-08-03T14:58:19.647Z,20.35
2022-08-03T15:02:03.397Z,20.10
2022-08-03T15:04:21.214Z,20.33
2022-08-03T15:07:11.333Z,19.20
2022-08-03T15:10:02.442Z,18.58
2022-08-03T15:12:51.877Z,19.17
2022-08-03T15:15:42.990Z,18.52
2022-08-03T15:18:34.994Z,17.67
2022-08-03T15:21:46.028Z,17.25
2022-08-03T15:24:36.112Z,17.58
2022-08-03T15:27:26.066Z,17.38
2022-08-03T15:30:15.683Z,17.10
2022-08-03T15:33:05.902Z,16.55
2022-08-03T15:35:55.543Z,16.15
2022-08-03T15:38:45.885Z,15.38
2022-08-03T15:41:35.774Z,15.48
2022-08-03T15:44:26.121Z,14.45
2022-08-03T15:47:18.857Z,14.52
2022-08-03T15:50:09.900Z,14.38
2022-08-03T15:53:00.495Z,13.77
2022-08-03T15:55:53.020Z,13.45
2022-08-03T15:59:04.578Z,13.32
2022-08-03T16:01:58.155Z,13.40
2022-08-03T16:04:48.765Z,13.05
2022-08-03T16:08:03.100Z,13.80
2022-08-03T16:10:53.251Z,13.13
2022-08-03T16:14:11.896Z,13.98
2022-08-03T16:16:57.171Z,299.33
2022-08-03T16:19:46.736Z,222.93
2022-08-03T16:22:36.950Z,159.23
2022-08-03T16:25:26.992Z,92.10
2022-08-03T16:28:16.951Z,54.70
2022-08-03T16:31:07.922Z,30.50
2022-08-03T16:33:57.384Z,26.00
2022-08-03T16:36:50.360Z,26.65
2022-08-03T16:39:40.370Z,24.13
2022-08-03T16:42:35.246Z,24.15
2022-08-03T16:45:25.560Z,24.17
2022-08-03T16:48:16.544Z,21.90
2022-08-03T16:51:06.529Z,23.52
2022-08-03T16:54:08.001Z,24.33
2022-08-03T16:57:02.559Z,24.60
2022-08-03T16:59:51.934Z,26.75
2022-08-03T17:02:48.151Z,29.50
2022-08-03T17:05:47.038Z,28.45
2022-08-03T17:08:37.029Z,30.05
2022-08-03T17:11:33.043Z,28.52
2022-08-03T17:14:28.258Z,30.05
2022-08-03T17:17:25.524Z,27.73
2022-08-03T17:20:16.686Z,27.55
2022-08-03T17:23:34.288Z,31.10
2022-08-03T17:26:30.270Z,28.30
2022-08-03T17:29:26.324Z,29.17
2022-08-03T17:32:22.180Z,28.20
2022-08-03T17:35:14.200Z,30.05
2022-08-03T17:38:06.562Z,31.85
2022-08-03T17:40:59.028Z,31.15
2022-08-03T17:44:15.244Z,31.73
2022-08-03T17:47:01.575Z,28.60
2022-08-03T17:49:51.389Z,30.15
2022-08-03T17:52:48.249Z,31.48
2022-08-03T17:55:55.170Z,29.42
2022-08-03T17:59:08.472Z,27.73
2022-08-03T18:02:29.957Z,27.30
2022-08-03T18:05:22.884Z,31.52
2022-08-03T18:08:35.418Z,28.95
2022-08-03T18:11:37.234Z,30.00
2022-08-03T18:14:57.903Z,30.20
2022-08-03T18:18:02.181Z,33.72
2022-08-03T18:20:52.333Z,30.05
2022-08-03T18:23:42.133Z,32.38
2022-08-03T18:26:32.531Z,29.38
2022-08-03T18:29:24.134Z,29.35
2022-08-03T18:32:16.862Z,34.20
2022-08-03T18:35:08.221Z,32.83
2022-08-03T18:38:04.942Z,31.23
2022-08-03T18:40:59.942Z,32.22
2022-08-03T18:44:06.589Z,30.00
2022-08-03T18:47:16.310Z,33.05
2022-08-03T18:50:50.028Z,32.90
2022-08-03T18:54:03.579Z,34.28
2022-08-03T18:56:56.541Z,33.00
2022-08-03T18:59:56.360Z,36.63
2022-08-03T19:02:51.264Z,33.65
2022-08-03T19:06:14.579Z,36.33
2022-08-03T19:09:21.455Z,31.75
2022-08-03T19:12:33.875Z,34.03
2022-08-03T19:15:37.054Z,33.83
2022-08-03T19:18:34.577Z,34.47
2022-08-03T19:21:24.433Z,32.88
2022-08-03T19:24:15.492Z,30.83
2022-08-03T19:27:06.830Z,32.25
2022-08-03T19:30:08.214Z,31.95
2022-08-03T19:33:05.308Z,32.25
2022-08-03T19:35:57.092Z,30.52
2022-08-03T19:38:47.822Z,32.95
2022-08-03T19:41:41.621Z,30.95
2022-08-03T19:44:33.742Z,33.10
2022-08-03T19:47:30.729Z,30.92
2022-08-03T19:50:22.043Z,30.23
2022-08-03T19:53:12.777Z,29.58
2022-08-03T19:56:07.989Z,27.73
2022-08-03T19:58:59.879Z,29.70
2022-08-03T20:05:00.509Z,30.90
2022-08-03T20:07:52.175Z,30.85
2022-08-03T20:10:41.646Z,28.50
2022-08-03T20:13:39.015Z,28.90
2022-08-03T20:16:29.004Z,29.20
2022-08-03T20:19:20.011Z,27.85
2022-08-03T20:22:14.493Z,29.02
2022-08-03T20:25:10.574Z,29.90
2022-08-03T20:28:13.590Z,30.05
2022-08-03T20:31:04.483Z,29.92
2022-08-03T20:33:56.525Z,30.30
2022-08-03T20:36:47.315Z,31.73
2022-08-03T20:39:37.515Z,32.08
2022-08-03T20:42:29.963Z,32.17
2022-08-03T20:45:59.918Z,32.25
2022-08-03T20:48:32.545Z,33.90
2022-08-03T20:51:50.030Z,33.72
2022-08-03T20:54:32.503Z,34.95
2022-08-03T20:57:22.203Z,32.50
2022-08-03T21:00:14.323Z,33.20
2022-08-03T21:03:04.300Z,35.35
2022-08-03T21:05:55.533Z,32.08
2022-08-03T21:08:46.867Z,31.33
2022-08-03T21:11:51.009Z,32.20
2022-08-03T21:13:09.393Z,29.63
2022-08-03T21:15:03.723Z,32.47
2022-08-03T21:17:56.968Z,34.58
2022-08-03T21:20:48.432Z,33.75
2022-08-03T21:23:48.960Z,34.25
2022-08-03T21:26:41.293Z,34.28
2022-08-03T21:29:31.240Z,34.33
2022-08-03T21:32:32.809Z,37.33
2022-08-03T21:35:24.504Z,38.72
2022-08-03T21:38:29.461Z,44.20
2022-08-03T21:41:20.467Z,45.45
2022-08-03T21:44:10.424Z,46.50
2022-08-03T21:47:01.353Z,45.50
2022-08-03T21:50:08.385Z,44.78
2022-08-03T21:52:58.964Z,42.38
2022-08-03T21:56:06.109Z,39.40
2022-08-03T21:58:58.068Z,38.13
2022-08-03T22:01:51.563Z,38.13
2022-08-03T22:04:55.240Z,37.55
2022-08-03T22:07:46.135Z,38.42
2022-08-03T22:10:36.367Z,37.95
2022-08-03T22:13:43.793Z,36.70
2022-08-03T22:16:37.444Z,36.03
2022-08-03T22:19:27.432Z,37.97
2022-08-03T22:22:20.530Z,37.15
2022-08-03T22:25:13.964Z,38.22
2022-08-03T22:28:11.156Z,38.00
2022-08-03T22:31:57.639Z,38.42
2022-08-03T22:34:10.964Z,37.72
2022-08-03T22:37:05.263Z,37.10
2022-08-03T22:39:55.371Z,37.78
2022-08-03T22:42:47.296Z,36.88
2022-08-03T22:45:45.832Z,36.83
2022-08-03T22:48:48.741Z,35.67
2022-08-03T22:51:38.364Z,36.83
2022-08-03T22:54:30.155Z,35.13
2022-08-03T22:57:21.754Z,35.53
2022-08-03T23:00:14.552Z,37.17
2022-08-03T23:03:04.838Z,37.22
2022-08-03T23:06:00.477Z,37.20
2022-08-03T23:08:53.684Z,37.20
2022-08-03T23:11:47.605Z,38.42
2022-08-03T23:14:41.043Z,39.60
2022-08-03T23:17:33.168Z,38.22
2022-08-03T23:20:26.624Z,38.72
2022-08-03T23:23:16.609Z,39.72
2022-08-03T23:26:10.272Z,39.55
2022-08-03T23:29:04.971Z,39.22
2022-08-03T23:31:56.431Z,38.78
2022-08-03T23:35:06.211Z,38.63
2022-08-03T23:38:21.571Z,35.45
2022-08-03T23:41:10.257Z,35.13
2022-08-03T23:44:01.670Z,32.17
2022-08-03T23:46:53.740Z,31.38
2022-08-03T23:49:43.398Z,29.92
2022-08-03T23:52:47.768Z,31.17
2022-08-03T23:55:53.584Z,30.45
2022-08-03T23:59:01.488Z,30.65
